Time;durP1;ratioP1;P1;durP2;ratioP2;P2;SDS_P1;SDS_P2;PMS_P1;PMS_P2;Temp;Humidity;BMP_temperature;BMP_pressure;BME280_temperature;BME280_humidity;BME280_pressure;Samples;Min_cycle;Max_cycle;Signal;HPM_P1;HPM_P2
2023/06/29 00:01:54;;;;;;;5.10;4.70;;;;;;;-144.30;96.11;85098.25;5057469;28;20204;-78
2023/06/29 00:04:21;;;;;;;5.00;4.18;;;;;;;-144.30;94.88;85050.53;5057769;28;20596;-77
2023/06/29 00:06:49;;;;;;;4.07;3.83;;;;;;;-144.30;94.58;85050.53;5056940;28;20199;-77
2023/06/29 00:09:19;;;;;;;4.63;4.22;;;;;;;-144.30;94.89;85102.22;5056551;28;20660;-78
2023/06/29 00:11:46;;;;;;;4.72;4.25;;;;;;;-144.30;94.75;85088.31;5057310;28;20707;-78
2023/06/29 00:14:13;;;;;;;4.25;4.05;;;;;;;-144.30;95.69;85126.09;5058052;28;20196;-78
2023/06/29 00:16:39;;;;;;;4.57;4.28;;;;;;;-144.30;95.16;85094.28;5057032;28;20200;-77
2023/06/29 00:19:07;;;;;;;4.82;4.20;;;;;;;-144.30;95.78;85066.44;5057122;28;20710;-78
2023/06/29 00:21:34;;;;;;;4.85;4.30;;;;;;;-144.30;95.66;85098.25;5057883;28;20848;-80
2023/06/29 00:24:01;;;;;;;4.28;3.90;;;;;;;-144.30;95.42;85106.22;5057884;28;20218;-78
2023/06/29 00:26:30;;;;;;;4.22;3.97;;;;;;;-144.30;94.50;85072.41;5057554;28;20239;-78
2023/06/29 00:28:57;;;;;;;5.18;3.80;;;;;;;-144.30;95.50;85122.09;5057709;28;20192;-78
2023/06/29 00:31:24;;;;;;;4.25;3.90;;;;;;;-144.30;95.51;85074.41;5057911;28;20267;-78
2023/06/29 00:33:51;;;;;;;3.75;3.55;;;;;;;-144.30;94.73;85096.25;5057844;28;20676;-78
2023/06/29 00:36:18;;;;;;;4.07;3.78;;;;;;;-144.30;94.58;85100.25;5056843;28;20747;-77
2023/06/29 00:38:45;;;;;;;4.03;3.72;;;;;;;-144.30;92.69;85112.16;5057146;28;20192;-77
2023/06/29 00:41:12;;;;;;;3.88;3.58;;;;;;;-144.30;92.75;85112.16;5057276;28;20197;-77
2023/06/29 00:43:43;;;;;;;4.18;3.85;;;;;;;-144.30;92.58;85066.44;5057779;28;20668;-77
2023/06/29 00:46:11;;;;;;;4.13;3.90;;;;;;;-144.30;94.04;85090.31;5058146;28;20258;-77
2023/06/29 00:48:39;;;;;;;4.25;3.80;;;;;;;-144.30;93.90;85141.97;5057260;28;20196;-77
2023/06/29 00:51:06;;;;;;;4.38;4.03;;;;;;;-144.30;94.77;85110.19;5056870;28;20232;-77
2023/06/29 00:53:33;;;;;;;4.68;4.28;;;;;;;-144.30;95.21;85173.78;5057511;28;20196;-77
2023/06/29 00:56:02;;;;;;;4.30;4.00;;;;;;;-144.30;95.46;85072.41;5057272;28;20220;-77
2023/06/29 00:58:30;;;;;;;4.18;3.88;;;;;;;-144.30;96.22;85147.94;5058024;28;20199;-76
2023/06/29 01:00:58;;;;;;;4.13;3.92;;;;;;;-144.30;97.34;85193.66;5056780;28;20207;-78
2023/06/29 01:03:25;;;;;;;4.75;4.25;;;;;;;-144.30;97.24;85221.50;5056448;28;20204;-77
2023/06/29 01:05:57;;;;;;;4.43;4.03;;;;;;;-144.30;97.60;85217.53;5056700;28;20193;-78
2023/06/29 01:08:30;;;;;;;4.00;3.80;;;;;;;-144.30;97.47;85231.44;5055526;28;20337;-77
2023/06/29 01:10:59;;;;;;;3.90;3.67;;;;;;;-144.30;97.20;85215.53;5053074;28;20232;-77
2023/06/29 01:13:28;;;;;;;4.00;3.70;;;;;;;-144.30;97.09;85255.28;5053385;28;20196;-76
2023/06/29 01:15:55;;;;;;;3.87;3.67;;;;;;;-144.30;97.25;85233.44;5054380;28;20754;-77
2023/06/29 01:18:24;;;;;;;4.47;4.03;;;;;;;-144.30;97.59;85269.22;5053618;28;20258;-78
2023/06/29 01:20:52;;;;;;;3.90;3.60;;;;;;;-144.30;97.70;85275.16;5054201;28;20637;-78
2023/06/29 01:23:25;;;;;;;4.00;3.80;;;;;;;-144.30;97.46;85251.31;5054274;28;20192;-78
2023/06/29 01:25:55;;;;;;;4.00;3.80;;;;;;;-144.30;98.07;85237.41;5054331;28;20219;-77
2023/06/29 01:28:23;;;;;;;3.90;3.60;;;;;;;-144.30;98.20;85247.34;5053869;28;20204;-77
2023/06/29 01:30:49;;;;;;;3.70;3.50;;;;;;;-144.30;97.75;85245.34;5053614;28;20228;-77
2023/06/29 01:33:18;;;;;;;6.40;3.60;;;;;;;-144.30;97.26;85239.38;5053391;28;20275;-77
2023/06/29 01:35:46;;;;;;;3.90;3.60;;;;;;;-144.30;98.31;85183.72;5052153;28;20231;-77
2023/06/29 01:38:19;;;;;;;5.13;3.97;;;;;;;-144.30;97.61;85183.72;5052668;28;20669;-77
2023/06/29 01:40:48;;;;;;;4.80;3.63;;;;;;;-144.30;97.84;85277.16;5053198;28;20199;-78
2023/06/29 01:43:17;;;;;;;4.17;3.97;;;;;;;-144.30;98.29;85251.31;5053173;28;20292;-78
2023/06/29 01:45:47;;;;;;;6.80;3.93;;;;;;;-144.30;98.64;85255.28;5053023;28;20735;-77
2023/06/29 01:48:15;;;;;;;4.03;3.73;;;;;;;-144.30;98.38;85253.31;5053807;28;20205;-77
2023/06/29 01:50:42;;;;;;;4.00;3.80;;;;;;;-144.30;98.17;85233.44;5053818;28;20277;-79
2023/06/29 01:53:09;;;;;;;4.57;4.27;;;;;;;-144.30;97.85;85257.28;5054484;28;20284;-78
2023/06/29 01:55:36;;;;;;;3.50;3.30;;;;;;;-144.30;97.50;85205.59;5054394;28;20228;-78
2023/06/29 01:58:03;;;;;;;4.77;4.37;;;;;;;-144.30;96.52;85273.19;5054527;28;20191;-78
2023/06/29 02:00:31;;;;;;;4.50;3.77;;;;;;;-144.30;96.26;85241.38;5053447;28;20209;-79
2023/06/29 02:02:58;;;;;;;3.87;3.57;;;;;;;-144.30;97.07;85255.28;5053279;28;20685;-78
2023/06/29 02:05:25;;;;;;;4.30;4.00;;;;;;;-144.30;96.94;85217.53;5052932;28;20203;-78
2023/06/29 02:07:52;;;;;;;4.23;3.90;;;;;;;-144.30;96.08;85263.25;5053461;28;20581;-78
2023/06/29 02:10:19;;;;;;;3.83;3.53;;;;;;;-144.30;95.79;85241.38;5053516;28;20201;-77
2023/06/29 02:12:46;;;;;;;4.33;4.07;;;;;;;-144.30;95.70;85245.34;5052855;28;20197;-78
2023/06/29 02:15:13;;;;;;;3.63;3.43;;;;;;;-144.30;95.99;85308.97;5053202;28;20225;-78
2023/06/29 02:17:41;;;;;;;4.60;4.20;;;;;;;-144.30;96.32;85281.13;5052678;28;20208;-77
2023/06/29 02:20:10;;;;;;;4.03;3.73;;;;;;;-144.30;96.09;85269.22;5053222;28;20208;-79
2023/06/29 02:22:37;;;;;;;4.57;3.93;;;;;;;-144.30;96.02;85285.09;5052897;28;20203;-78
2023/06/29 02:25:04;;;;;;;6.73;4.37;;;;;;;-144.30;95.92;85283.13;5052720;28;20688;-78
2023/06/29 02:27:31;;;;;;;4.87;4.03;;;;;;;-144.30;96.68;85289.09;5052176;28;20228;-76
2023/06/29 02:29:58;;;;;;;4.37;4.07;;;;;;;-144.30;96.41;85291.06;5052085;28;20620;-77
2023/06/29 02:32:25;;;;;;;4.30;4.00;;;;;;;-144.30;96.16;85289.09;5051886;28;20211;-77
2023/06/29 02:34:53;;;;;;;4.20;3.90;;;;;;;-144.30;96.34;85291.06;5052667;28;20211;-77
2023/06/29 02:37:20;;;;;;;4.17;3.80;;;;;;;-144.30;97.14;85201.63;5052079;28;20603;-77
2023/06/29 02:39:47;;;;;;;4.03;3.73;;;;;;;-144.30;96.70;85332.81;5052827;28;20204;-77
2023/06/29 02:42:14;;;;;;;3.90;3.57;;;;;;;-144.30;97.15;85281.13;5052347;28;20199;-78
2023/06/29 02:44:41;;;;;;;3.87;3.60;;;;;;;-144.30;96.63;85306.97;5052372;28;20506;-78
2023/06/29 02:47:08;;;;;;;3.73;3.53;;;;;;;-144.30;95.76;85255.28;5052138;28;20381;-78
2023/06/29 02:49:35;;;;;;;4.07;3.27;;;;;;;-144.30;96.29;85314.94;5052217;28;20668;-77
2023/06/29 02:52:03;;;;;;;4.43;3.27;;;;;;;-144.30;95.37;85462.03;5052295;28;20200;-78
2023/06/29 02:54:30;;;;;;;4.07;3.77;;;;;;;-144.30;95.97;85336.78;5051620;28;20583;-77
2023/06/29 02:56:57;;;;;;;3.73;3.53;;;;;;;-144.30;95.32;85301.00;5051405;28;20715;-77
2023/06/29 02:59:24;;;;;;;3.70;3.50;;;;;;;-144.30;95.59;85185.72;5051482;28;20204;-77
2023/06/29 03:01:51;;;;;;;3.70;3.40;;;;;;;-144.30;94.77;85261.25;5051820;28;20246;-77
2023/06/29 03:04:18;;;;;;;4.23;3.37;;;;;;;-144.30;94.58;85217.53;5052335;28;20201;-77
2023/06/29 03:06:44;;;;;;;5.17;3.93;;;;;;;-144.30;94.70;85265.22;5052216;28;20207;-78
2023/06/29 03:09:13;;;;;;;4.00;3.80;;;;;;;-144.30;93.61;85155.91;5052322;28;20201;-77
2023/06/29 03:11:40;;;;;;;3.80;3.50;;;;;;;-144.30;93.49;85269.22;5051889;28;20232;-77
2023/06/29 03:14:06;;;;;;;4.23;3.93;;;;;;;-144.30;93.29;85269.22;5051740;28;20204;-77
2023/06/29 03:16:33;;;;;;;3.63;3.43;;;;;;;-144.30;93.47;85281.13;5051453;28;20628;-78
2023/06/29 03:19:00;;;;;;;3.60;3.38;;;;;;;-144.30;93.13;85259.28;5051446;28;20567;-78
2023/06/29 03:21:27;;;;;;;4.07;3.87;;;;;;;-144.30;91.84;85187.69;5051174;28;20203;-78
2023/06/29 03:23:54;;;;;;;4.80;4.22;;;;;;;-144.30;91.59;85225.47;5053857;28;20291;-78
2023/06/29 03:26:22;;;;;;;4.47;4.17;;;;;;;-144.30;91.64;85211.56;5052701;28;20196;-77
2023/06/29 03:28:49;;;;;;;4.63;4.32;;;;;;;-144.30;90.92;85225.47;5052020;28;20203;-78
2023/06/29 03:31:16;;;;;;;3.80;3.50;;;;;;;-144.30;90.81;85199.63;5052296;28;20211;-76
2023/06/29 03:33:44;;;;;;;4.40;3.80;;;;;;;-144.30;90.61;85084.34;5051336;28;20200;-77
2023/06/29 03:36:12;;;;;;;4.07;3.77;;;;;;;-144.30;90.45;85225.47;5052054;28;20223;-77
2023/06/29 03:38:39;;;;;;;6.30;3.85;;;;;;;-144.30;90.16;85213.53;5051276;28;20220;-77
2023/06/29 03:41:06;;;;;;;3.97;3.73;;;;;;;-144.30;89.25;85193.66;5051178;28;20200;-77
2023/06/29 03:43:34;;;;;;;4.57;3.47;;;;;;;-144.30;89.27;85213.53;5051605;28;20577;-78
2023/06/29 03:46:01;;;;;;;3.47;3.20;;;;;;;-144.30;89.09;85213.53;5050737;28;20199;-77
2023/06/29 03:48:28;;;;;;;3.47;3.28;;;;;;;-144.30;88.50;85221.50;5050570;28;20389;-78
2023/06/29 03:50:55;;;;;;;4.38;3.92;;;;;;;-144.30;88.71;85187.69;5051699;28;20254;-78
2023/06/29 03:53:22;;;;;;;3.88;3.45;;;;;;;-144.30;87.92;85161.88;5052648;28;20200;-78
2023/06/29 03:55:49;;;;;;;3.78;3.47;;;;;;;-144.30;87.67;85153.91;5051520;28;20228;-78
2023/06/29 03:58:16;;;;;;;3.75;3.42;;;;;;;-144.30;87.09;85132.03;5051256;28;20212;-74
2023/06/29 04:00:45;;;;;;;4.15;3.40;;;;;;;-144.30;86.89;85185.72;5052357;28;20203;-75
2023/06/29 04:03:12;;;;;;;5.40;4.05;;;;;;;-144.30;86.92;84879.59;5051082;28;20200;-74
2023/06/29 04:05:39;;;;;;;4.13;3.30;;;;;;;-144.30;85.51;85141.97;5050433;28;20196;-74
2023/06/29 04:08:06;;;;;;;3.97;3.03;;;;;;;-144.30;85.67;85179.75;5050691;28;20236;-73
2023/06/29 04:10:33;;;;;;;3.72;3.17;;;;;;;-144.30;85.37;85104.22;5049658;28;20631;-74
2023/06/29 04:13:00;;;;;;;4.28;3.60;;;;;;;-144.30;85.00;85104.22;5049919;28;20207;-74
2023/06/29 04:15:27;;;;;;;4.47;3.97;;;;;;;-144.30;83.20;85046.56;5050153;28;20207;-75
2023/06/29 04:17:56;;;;;;;3.38;3.17;;;;;;;-144.30;81.11;84994.91;5051063;28;20565;-75
2023/06/29 04:20:22;;;;;;;3.50;3.22;;;;;;;-144.30;79.29;84949.19;5049994;28;20201;-74
2023/06/29 04:22:49;;;;;;;3.90;3.65;;;;;;;-144.30;77.63;84833.88;5051136;28;20199;-74
2023/06/29 04:25:16;;;;;;;3.50;3.20;;;;;;;-144.30;76.02;84819.97;5050474;28;20596;-75
2023/06/29 04:27:44;;;;;;;4.00;3.70;;;;;;;-144.30;74.97;84750.41;5049857;28;20588;-75
2023/06/29 04:30:11;;;;;;;4.25;3.20;;;;;;;-144.30;73.46;84744.44;5050958;28;20200;-75
2023/06/29 04:32:39;;;;;;;3.30;3.10;;;;;;;-144.30;72.35;84680.84;5050676;28;20668;-74
2023/06/29 04:35:09;;;;;;;3.20;3.00;;;;;;;-144.30;70.16;84589.41;5049627;28;20201;-74
2023/06/29 04:37:40;;;;;;;3.42;3.22;;;;;;;-144.30;69.11;84541.72;5049066;28;20243;-75
2023/06/29 04:40:10;;;;;;;2.90;2.70;;;;;;;-144.30;69.36;84561.59;5049376;28;20201;-75
2023/06/29 04:42:43;;;;;;;4.00;3.45;;;;;;;-144.30;70.94;84692.78;5048776;28;20193;-75
2023/06/29 04:45:17;;;;;;;3.55;3.20;;;;;;;-144.30;72.51;84740.47;5053821;28;20596;-75
2023/06/29 04:47:45;;;;;;;6.47;3.60;;;;;;;-144.30;74.13;84762.34;5053417;28;20238;-75
2023/06/29 04:50:14;;;;;;;3.92;3.63;;;;;;;-144.30;75.52;84780.22;5053969;28;20192;-75
2023/06/29 04:52:41;;;;;;;4.32;3.47;;;;;;;-144.30;75.84;84839.84;5053592;28;20200;-75
2023/06/29 04:55:09;;;;;;;4.40;3.42;;;;;;;-144.30;76.91;84889.53;5054308;28;20207;-78
2023/06/29 04:57:36;;;;;;;4.13;3.72;;;;;;;-144.30;77.28;84905.44;5053692;28;20652;-78
2023/06/29 05:00:08;;;;;;;3.92;3.72;;;;;;;-144.30;77.22;84907.44;5054241;28;20211;-78
2023/06/29 05:02:35;;;;;;;4.72;4.30;;;;;;;-144.30;77.97;84943.22;5053729;28;20235;-77
2023/06/29 05:05:02;;;;;;;7.35;4.63;;;;;;;-144.30;78.29;84965.06;5053777;28;20206;-78
2023/06/29 05:07:30;;;;;;;4.78;4.25;;;;;;;-144.30;78.94;84941.22;5053149;28;20644;-78
2023/06/29 05:09:58;;;;;;;4.38;3.95;;;;;;;-144.30;79.45;84963.09;5053570;28;20287;-78
2023/06/29 05:12:25;;;;;;;4.95;4.47;;;;;;;-144.30;78.31;84911.41;5053420;28;20236;-78
2023/06/29 05:14:52;;;;;;;5.63;4.68;;;;;;;-144.30;78.61;84947.19;5054293;28;20196;-79
2023/06/29 05:17:19;;;;;;;8.43;7.65;;;;;;;-144.30;77.89;84939.25;5053691;28;20720;-80
2023/06/29 05:19:46;;;;;;;13.57;12.02;;;;;;;-144.30;78.78;84863.72;5053671;28;20284;-79
2023/06/29 05:22:14;;;;;;;4.78;4.47;;;;;;;-144.30;78.76;84835.88;5053601;28;20193;-78
2023/06/29 05:24:42;;;;;;;9.55;6.53;;;;;;;-144.30;78.79;84905.44;5053669;28;20200;-79
2023/06/29 05:27:09;;;;;;;7.20;4.47;;;;;;;-144.30;78.98;84965.06;5053614;28;20196;-79
2023/06/29 05:29:37;;;;;;;4.55;4.15;;;;;;;-144.30;78.47;84959.13;5053544;28;20214;-79
2023/06/29 05:32:05;;;;;;;6.00;5.43;;;;;;;-144.30;78.74;84919.34;5054348;28;20207;-78
2023/06/29 05:34:32;;;;;;;8.00;7.22;;;;;;;-144.30;75.69;84796.13;5053994;28;20208;-77
2023/06/29 05:36:59;;;;;;;7.65;7.00;;;;;;;-144.30;72.03;84611.28;5053126;28;20225;-77
2023/06/29 05:39:27;;;;;;;6.50;5.75;;;;;;;-144.30;69.85;84553.66;5053679;28;20203;-79
2023/06/29 05:41:55;;;;;;;5.03;4.53;;;;;;;-144.30;66.96;84344.97;5053951;28;20192;-78
2023/06/29 05:44:22;;;;;;;8.45;7.68;;;;;;;-144.30;59.58;84114.44;5054489;28;20665;-77
2023/06/29 05:46:49;;;;;;;4.70;4.28;;;;;;;-144.30;55.06;83864.06;5053608;28;20228;-79
2023/06/29 05:49:16;;;;;;;6.68;6.07;;;;;;;-144.30;52.70;83748.81;5052786;28;20209;-78
2023/06/29 05:51:42;;;;;;;4.32;3.90;;;;;;;-144.30;49.41;83589.88;5053240;28;20246;-80
2023/06/29 05:54:10;;;;;;;4.30;4.00;;;;;;;-144.30;48.87;83466.69;5053826;28;20192;-79
2023/06/29 05:56:37;;;;;;;4.10;3.80;;;;;;;-144.30;46.82;83399.13;5052652;28;20221;-78
2023/06/29 05:59:05;;;;;;;7.53;6.82;;;;;;;-144.30;46.06;83325.63;5053528;28;20196;-78
2023/06/29 06:01:32;;;;;;;6.50;6.00;;;;;;;-144.30;44.60;83194.50;5052563;28;20592;-78
2023/06/29 06:03:59;;;;;;;6.05;5.47;;;;;;;-144.30;43.09;83158.75;5053273;28;20219;-78
2023/06/29 06:06:26;;;;;;;4.63;4.20;;;;;;;-144.30;42.63;83144.84;5053453;28;20254;-78
2023/06/29 06:08:53;;;;;;;7.10;6.60;;;;;;;-144.30;42.88;83158.75;5053164;28;20203;-79
2023/06/29 06:11:19;;;;;;;4.18;3.88;;;;;;;-144.30;42.43;83087.22;5052688;28;20355;-80
2023/06/29 06:13:46;;;;;;;8.98;6.55;;;;;;;-144.30;41.60;82977.97;5052450;28;20197;-79
2023/06/29 06:16:15;;;;;;;4.35;4.03;;;;;;;-144.30;40.79;82838.91;5052928;28;20196;-79
2023/06/29 06:18:42;;;;;;;10.77;9.70;;;;;;;-144.30;39.77;82809.09;5052772;28;20287;-79
2023/06/29 06:21:09;;;;;;;11.25;9.80;;;;;;;-144.30;39.31;82789.25;5052913;28;20200;-77
2023/06/29 06:23:35;;;;;;;4.28;4.05;;;;;;;-144.30;39.89;82948.16;5052006;28;20203;-78
2023/06/29 06:26:02;;;;;;;11.27;7.43;;;;;;;-144.30;41.08;83095.16;5052867;28;20203;-78
2023/06/29 06:28:29;;;;;;;20.98;17.92;;;;;;;-144.30;41.34;83067.34;5052145;28;20290;-79
2023/06/29 06:30:56;;;;;;;14.15;12.88;;;;;;;-144.30;40.65;83625.63;5052610;28;20200;-78
2023/06/29 06:33:24;;;;;;;6.03;4.93;;;;;;;-144.30;40.84;83134.91;5053094;28;20216;-78
2023/06/29 06:35:52;;;;;;;4.80;4.32;;;;;;;-144.30;40.53;83107.09;5053098;28;20211;-78
2023/06/29 06:38:19;;;;;;;4.80;4.40;;;;;;;-144.30;39.87;82968.03;5052599;28;20228;-78
2023/06/29 06:40:47;;;;;;;7.80;5.95;;;;;;;-144.30;40.16;83011.72;5051977;28;20192;-78
2023/06/29 06:43:15;;;;;;;6.00;3.95;;;;;;;-144.30;40.11;83039.53;5052584;28;20246;-78
2023/06/29 06:45:42;;;;;;;4.13;3.85;;;;;;;-144.30;40.65;83148.81;5052610;28;20208;-78
2023/06/29 06:48:09;;;;;;;4.43;3.95;;;;;;;-144.30;41.38;83132.91;5052249;28;20573;-77
2023/06/29 06:50:37;;;;;;;4.88;4.47;;;;;;;-144.30;40.43;83049.47;5051996;28;20197;-79
2023/06/29 06:53:04;;;;;;;6.28;5.05;;;;;;;-144.30;40.51;82884.59;5052138;28;20196;-80
2023/06/29 06:55:31;;;;;;;7.32;6.47;;;;;;;-144.30;41.43;83043.50;5052046;28;20672;-79
2023/06/29 06:57:57;;;;;;;11.32;10.30;;;;;;;-144.30;40.73;83035.56;5052567;28;20604;-80
2023/06/29 07:00:26;;;;;;;4.53;4.22;;;;;;;-144.30;41.14;83091.19;5052349;28;20583;-79
2023/06/29 07:02:53;;;;;;;5.57;5.07;;;;;;;-144.30;40.93;83166.69;5052363;28;20201;-79
2023/06/29 07:05:20;;;;;;;5.60;4.05;;;;;;;-144.30;41.14;83113.03;5052343;28;20227;-79
2023/06/29 07:07:51;;;;;;;3.88;3.67;;;;;;;-144.30;41.08;83156.75;5050123;28;20197;-75
2023/06/29 07:10:18;;;;;;;7.32;6.63;;;;;;;-144.30;42.17;83333.56;5050359;28;20687;-75
2023/06/29 07:12:44;;;;;;;5.68;5.18;;;;;;;-144.30;41.64;83206.41;5050697;28;20200;-73
2023/06/29 07:15:11;;;;;;;7.32;6.60;;;;;;;-144.30;41.16;83097.16;5050792;28;20200;-75
2023/06/29 07:17:38;;;;;;;3.97;3.78;;;;;;;-144.30;40.56;83126.94;5051000;28;20224;-75
2023/06/29 07:20:07;;;;;;;4.57;4.28;;;;;;;-144.30;40.94;83097.16;5051444;28;20673;-76
2023/06/29 07:22:34;;;;;;;3.75;3.55;;;;;;;-144.30;40.57;83063.38;5051065;28;20689;-75
2023/06/29 07:25:04;;;;;;;3.88;3.55;;;;;;;-144.30;40.33;83021.66;5050420;28;20207;-75
2023/06/29 07:27:31;;;;;;;5.13;4.00;;;;;;;-144.30;39.76;83027.63;5049773;28;20208;-76
2023/06/29 07:29:58;;;;;;;4.60;4.30;;;;;;;-144.30;38.84;82884.59;5050481;28;20461;-75
2023/06/29 07:32:25;;;;;;;4.82;3.78;;;;;;;-144.30;39.00;82924.31;5050082;28;20201;-74
2023/06/29 07:34:52;;;;;;;5.90;5.50;;;;;;;-144.30;39.86;82926.31;5050411;28;20196;-75
2023/06/29 07:37:21;;;;;;;6.97;5.45;;;;;;;-144.30;39.27;82962.06;5050818;28;20246;-75
2023/06/29 07:39:48;;;;;;;11.73;7.63;;;;;;;-144.30;39.28;82922.34;5050139;28;20651;-74
2023/06/29 07:42:17;;;;;;;5.43;5.00;;;;;;;-144.30;38.83;82832.94;5050388;28;20247;-75
2023/06/29 07:44:44;;;;;;;8.50;7.65;;;;;;;-144.30;39.17;82842.88;5050111;28;20196;-75
2023/06/29 07:47:10;;;;;;;5.97;5.00;;;;;;;-144.30;38.84;82995.84;5050109;28;20196;-75
2023/06/29 07:49:37;;;;;;;4.80;4.40;;;;;;;-144.30;38.91;83027.63;5049215;28;20212;-75
2023/06/29 07:52:05;;;;;;;4.78;4.35;;;;;;;-144.30;39.29;83005.78;5050186;28;20189;-75
2023/06/29 07:54:32;;;;;;;4.63;4.25;;;;;;;-144.30;38.49;82928.28;5049521;28;20203;-74
2023/06/29 07:56:59;;;;;;;4.70;4.32;;;;;;;-144.30;37.41;82962.06;5049614;28;20235;-75
2023/06/29 07:59:27;;;;;;;4.15;3.92;;;;;;;-144.30;38.08;82960.06;5049740;28;20200;-74
2023/06/29 08:01:55;;;;;;;4.70;4.30;;;;;;;-144.30;37.54;82874.66;5049600;28;20196;-74
2023/06/29 08:04:22;;;;;;;4.82;3.63;;;;;;;-144.30;36.90;82779.31;5049465;28;20199;-74
2023/06/29 08:06:49;;;;;;;3.70;3.50;;;;;;;-144.30;36.16;82705.81;5050563;28;20193;-75
2023/06/29 08:09:16;;;;;;;3.58;3.38;;;;;;;-144.30;35.72;82560.81;5049872;28;20207;-74
2023/06/29 08:11:42;;;;;;;3.97;3.78;;;;;;;-144.30;36.25;82570.75;5050137;28;20232;-75
2023/06/29 08:14:09;;;;;;;4.40;3.67;;;;;;;-144.30;36.44;82650.19;5051493;28;20231;-75
2023/06/29 08:16:38;;;;;;;3.63;3.42;;;;;;;-144.30;35.79;82457.53;5050222;28;20196;-75
2023/06/29 08:19:05;;;;;;;4.40;3.22;;;;;;;-144.30;34.96;82401.91;5052468;28;20708;-75
2023/06/29 08:21:32;;;;;;;5.03;3.53;;;;;;;-144.30;34.84;82473.41;5054891;28;20213;-76
2023/06/29 08:23:59;;;;;;;3.42;3.15;;;;;;;-144.30;34.54;82499.22;5054347;28;20203;-75
2023/06/29 08:26:26;;;;;;;3.42;3.17;;;;;;;-144.30;34.21;82546.91;5053369;28;20203;-75
2023/06/29 08:28:53;;;;;;;3.35;3.15;;;;;;;-144.30;34.18;82447.59;5054705;28;20193;-73
2023/06/29 08:31:20;;;;;;;6.72;3.35;;;;;;;-144.30;33.83;82258.91;5053866;28;20203;-75
2023/06/29 08:33:49;;;;;;;3.10;2.90;;;;;;;-144.30;33.64;82395.94;5053634;28;20200;-75
2023/06/29 08:36:16;;;;;;;3.92;2.95;;;;;;;-144.30;34.04;82546.91;5053279;28;20220;-75
2023/06/29 08:38:45;;;;;;;4.40;3.30;;;;;;;-144.30;34.56;82370.13;5053556;28;20278;-75
2023/06/29 08:41:13;;;;;;;4.28;3.05;;;;;;;-144.30;35.00;82600.53;5053577;28;20335;-75
2023/06/29 08:43:41;;;;;;;3.33;3.13;;;;;;;-144.30;35.42;82590.59;5053280;28;20201;-75
2023/06/29 08:46:08;;;;;;;3.10;2.80;;;;;;;-144.30;34.77;82535.00;5053354;28;20207;-75
2023/06/29 08:48:36;;;;;;;3.13;2.90;;;;;;;-144.30;35.45;82681.97;5053541;28;20196;-75
2023/06/29 08:51:09;;;;;;;3.15;2.95;;;;;;;-144.30;36.02;82666.09;5053370;28;20192;-75
2023/06/29 08:53:36;;;;;;;3.08;2.97;;;;;;;-144.30;35.60;82737.59;5053185;28;20672;-75
2023/06/29 08:56:04;;;;;;;3.55;3.25;;;;;;;-144.30;35.95;82785.28;5053120;28;20207;-74
2023/06/29 08:58:31;;;;;;;3.60;3.30;;;;;;;-144.30;36.14;82809.09;5052699;28;20224;-74
2023/06/29 09:00:59;;;;;;;6.43;3.28;;;;;;;-144.30;36.29;82745.53;5053331;28;20201;-75
2023/06/29 09:03:28;;;;;;;3.47;3.17;;;;;;;-144.30;35.55;82749.50;5052935;28;20287;-75
2023/06/29 09:05:55;;;;;;;6.82;4.00;;;;;;;-144.30;36.12;82862.75;5052653;28;20680;-75
2023/06/29 09:08:24;;;;;;;3.70;3.47;;;;;;;-144.30;36.73;82958.09;5052749;28;20200;-75
2023/06/29 09:10:52;;;;;;;4.70;3.15;;;;;;;-144.30;37.29;83005.78;5053283;28;20229;-75
2023/06/29 09:13:19;;;;;;;3.17;3.08;;;;;;;-144.30;37.58;83033.59;5053643;28;20196;-74
2023/06/29 09:15:48;;;;;;;3.22;3.13;;;;;;;-144.30;37.42;82729.66;5051840;28;20201;-75
2023/06/29 09:18:15;;;;;;;3.08;2.85;;;;;;;-144.30;36.81;82878.63;5052311;28;20314;-74
2023/06/29 09:20:44;;;;;;;3.92;3.50;;;;;;;-144.30;36.73;82920.34;5052195;28;20215;-74
2023/06/29 09:23:13;;;;;;;3.65;3.30;;;;;;;-144.30;37.33;82991.88;5052487;28;20247;-75
2023/06/29 09:25:42;;;;;;;4.53;4.15;;;;;;;-144.30;37.59;83037.56;5052423;28;20185;-74
2023/06/29 09:28:09;;;;;;;3.63;3.42;;;;;;;-144.30;37.54;82975.97;5052578;28;20197;-77
2023/06/29 09:30:38;;;;;;;4.05;3.65;;;;;;;-144.30;37.04;82904.47;5051498;28;20670;-75
2023/06/29 09:33:09;;;;;;;3.13;3.03;;;;;;;-144.30;36.40;82860.75;5052659;28;20684;-75
2023/06/29 09:35:41;;;;;;;5.03;3.83;;;;;;;-144.30;36.66;82987.88;5051858;28;20200;-74
2023/06/29 09:38:08;;;;;;;3.25;3.05;;;;;;;-144.30;35.97;82892.53;5052429;28;20216;-74
2023/06/29 09:40:48;;;;;;;5.00;4.70;;;;;;;-144.30;36.24;82894.53;5051923;28;20586;-75
2023/06/29 09:43:20;;;;;;;7.80;4.05;;;;;;;-144.30;35.77;82821.03;5052838;28;20584;-76
2023/06/29 09:45:48;;;;;;;3.60;3.33;;;;;;;-144.30;35.88;83293.84;5051966;28;20645;-75
2023/06/29 09:48:15;;;;;;;3.50;3.30;;;;;;;-144.30;35.38;82838.91;5052089;28;20211;-75
2023/06/29 09:50:49;;;;;;;3.60;2.85;;;;;;;-144.30;35.15;82749.50;5051830;28;20592;-75
2023/06/29 09:53:16;;;;;;;3.10;2.88;;;;;;;-144.30;35.29;83156.75;5051639;28;20676;-74
2023/06/29 09:55:43;;;;;;;3.20;3.10;;;;;;;-144.30;34.81;82678.00;5051501;28;20192;-75
2023/06/29 09:58:14;;;;;;;2.80;2.67;;;;;;;-144.30;33.36;82749.50;5052891;28;20222;-74
2023/06/29 10:00:41;;;;;;;3.00;2.60;;;;;;;-144.30;34.01;82763.41;5052552;28;20231;-75
2023/06/29 10:03:08;;;;;;;4.72;2.97;;;;;;;-144.30;34.13;82819.03;5052317;28;20204;-74
2023/06/29 10:05:35;;;;;;;2.90;2.70;;;;;;;-144.30;35.25;82781.28;5051352;28;20204;-73
2023/06/29 10:08:07;;;;;;;3.97;3.50;;;;;;;-144.30;35.05;82753.50;5051903;28;20200;-75
2023/06/29 10:10:37;;;;;;;2.88;2.75;;;;;;;-144.30;34.24;82747.53;5051260;28;20318;-75
2023/06/29 10:13:07;;;;;;;2.78;2.67;;;;;;;-144.30;34.30;82670.06;5051476;28;20193;-73
2023/06/29 10:15:37;;;;;;;2.80;2.67;;;;;;;-144.30;33.53;82781.28;5051378;28;20204;-73
2023/06/29 10:18:09;;;;;;;2.92;2.80;;;;;;;-144.30;33.75;82815.06;5051713;28;20220;-74
2023/06/29 10:20:40;;;;;;;2.70;2.60;;;;;;;-144.30;34.28;82832.94;5051136;28;20558;-75
2023/06/29 10:23:09;;;;;;;3.42;2.83;;;;;;;-144.30;34.62;82908.44;5051240;28;20200;-75
2023/06/29 10:25:40;;;;;;;4.22;3.00;;;;;;;-144.30;34.82;83031.59;5050835;28;20292;-75
2023/06/29 10:28:09;;;;;;;4.32;4.03;;;;;;;-144.30;35.88;83107.09;5051575;28;20192;-75
2023/06/29 10:30:46;;;;;;;3.70;3.50;;;;;;;-144.30;36.38;83158.75;5051479;28;20203;-76
2023/06/29 10:33:13;;;;;;;3.00;2.80;;;;;;;-144.30;36.07;83101.13;5051826;28;20204;-75
2023/06/29 10:35:40;;;;;;;3.13;2.80;;;;;;;-144.30;35.13;83077.28;5051456;28;20201;-76
2023/06/29 10:38:12;;;;;;;3.25;2.97;;;;;;;-144.30;34.35;83087.22;5051678;28;20217;-76
2023/06/29 10:40:47;;;;;;;3.92;3.42;;;;;;;-144.30;34.86;83029.59;5051913;28;20193;-75
2023/06/29 10:43:15;;;;;;;2.75;2.65;;;;;;;-144.30;35.27;83079.28;5051482;28;20215;-75
2023/06/29 10:45:42;;;;;;;3.28;2.97;;;;;;;-144.30;35.73;82928.28;5050903;28;20197;-75
2023/06/29 10:48:13;;;;;;;3.15;3.00;;;;;;;-144.30;35.89;83192.50;5050842;28;20196;-75
2023/06/29 10:50:42;;;;;;;5.13;2.60;;;;;;;-144.30;35.95;83134.91;5050983;28;20204;-75
2023/06/29 10:53:11;;;;;;;3.05;2.50;;;;;;;-144.30;35.36;83242.19;5051312;28;20254;-76
2023/06/29 10:55:47;;;;;;;3.72;2.50;;;;;;;-144.30;36.69;83262.03;5051193;28;20295;-75
2023/06/29 10:58:20;;;;;;;2.90;2.80;;;;;;;-144.30;36.50;83166.69;5052532;28;20614;-75
2023/06/29 11:00:48;;;;;;;2.78;2.67;;;;;;;-144.30;36.33;83148.81;5052094;28;20204;-75
2023/06/29 11:03:16;;;;;;;3.35;2.75;;;;;;;-144.30;36.02;83154.75;5052251;28;20215;-76
2023/06/29 11:05:44;;;;;;;3.15;3.03;;;;;;;-144.30;36.00;83254.09;5051712;28;20197;-75
2023/06/29 11:08:11;;;;;;;5.28;2.80;;;;;;;-144.30;36.72;83240.19;5051894;28;20204;-75
2023/06/29 11:10:38;;;;;;;3.30;3.10;;;;;;;-144.30;36.93;83224.28;5051393;28;20224;-75
2023/06/29 11:13:09;;;;;;;3.97;2.85;;;;;;;-144.30;36.29;83273.97;5051832;28;20676;-75
2023/06/29 11:15:37;;;;;;;2.67;2.55;;;;;;;-144.30;35.78;83216.34;5051229;28;20200;-75
2023/06/29 11:18:05;;;;;;;2.53;2.42;;;;;;;-144.30;35.54;83186.56;5051361;28;20723;-75
2023/06/29 11:20:35;;;;;;;4.00;2.28;;;;;;;-144.30;35.55;83039.53;5051071;28;20239;-75